sensor_id;sensor_type;location;lat;lon;timestamp;P1;durP1;ratioP1;P2;durP2;ratioP2
21330;SDS011;10824;51.632;4.950;2024-02-26T00:00:19;1.20;;;0.95;;
21330;SDS011;10824;51.632;4.950;2024-02-26T00:02:49;1.80;;;0.95;;
21330;SDS011;10824;51.632;4.950;2024-02-26T00:05:16;3.40;;;0.90;;
21330;SDS011;10824;51.632;4.950;2024-02-26T00:07:43;5.70;;;1.10;;
21330;SDS011;10824;51.632;4.950;2024-02-26T00:10:11;1.55;;;1.00;;
21330;SDS011;10824;51.632;4.950;2024-02-26T00:12:39;1.50;;;1.10;;
21330;SDS011;10824;51.632;4.950;2024-02-26T00:15:07;1.17;;;0.98;;
21330;SDS011;10824;51.632;4.950;2024-02-26T00:17:35;1.98;;;0.90;;
21330;SDS011;10824;51.632;4.950;2024-02-26T00:20:03;1.35;;;1.00;;
21330;SDS011;10824;51.632;4.950;2024-02-26T00:25:02;2.30;;;1.25;;
21330;SDS011;10824;51.632;4.950;2024-02-26T00:27:33;2.88;;;0.70;;
21330;SDS011;10824;51.632;4.950;2024-02-26T00:30:01;1.15;;;0.90;;
21330;SDS011;10824;51.632;4.950;2024-02-26T00:32:29;2.75;;;1.10;;
21330;SDS011;10824;51.632;4.950;2024-02-26T00:34:56;1.45;;;0.80;;
21330;SDS011;10824;51.632;4.950;2024-02-26T00:37:23;1.88;;;1.25;;
21330;SDS011;10824;51.632;4.950;2024-02-26T00:39:50;1.95;;;0.88;;
21330;SDS011;10824;51.632;4.950;2024-02-26T00:42:19;1.73;;;1.20;;
21330;SDS011;10824;51.632;4.950;2024-02-26T00:44:47;0.90;;;0.73;;
21330;SDS011;10824;51.632;4.950;2024-02-26T00:47:17;3.15;;;1.30;;
21330;SDS011;10824;51.632;4.950;2024-02-26T00:49:44;2.28;;;0.70;;
21330;SDS011;10824;51.632;4.950;2024-02-26T00:52:11;3.60;;;1.00;;
21330;SDS011;10824;51.632;4.950;2024-02-26T00:54:38;2.03;;;1.23;;
21330;SDS011;10824;51.632;4.950;2024-02-26T00:57:05;0.70;;;0.70;;
21330;SDS011;10824;51.632;4.950;2024-02-26T00:59:33;2.60;;;0.60;;
21330;SDS011;10824;51.632;4.950;2024-02-26T01:02:00;1.50;;;1.20;;
21330;SDS011;10824;51.632;4.950;2024-02-26T01:04:29;4.32;;;0.80;;
21330;SDS011;10824;51.632;4.950;2024-02-26T01:06:56;1.17;;;0.90;;
21330;SDS011;10824;51.632;4.950;2024-02-26T01:09:23;2.53;;;0.82;;
21330;SDS011;10824;51.632;4.950;2024-02-26T01:11:50;0.60;;;0.60;;
21330;SDS011;10824;51.632;4.950;2024-02-26T01:14:17;1.77;;;1.00;;
21330;SDS011;10824;51.632;4.950;2024-02-26T01:16:45;1.88;;;1.27;;
21330;SDS011;10824;51.632;4.950;2024-02-26T01:19:12;1.30;;;1.20;;
21330;SDS011;10824;51.632;4.950;2024-02-26T01:21:39;1.15;;;0.90;;
21330;SDS011;10824;51.632;4.950;2024-02-26T01:24:07;1.77;;;1.00;;
21330;SDS011;10824;51.632;4.950;2024-02-26T01:26:34;7.18;;;1.63;;
21330;SDS011;10824;51.632;4.950;2024-02-26T01:29:01;3.28;;;1.67;;
21330;SDS011;10824;51.632;4.950;2024-02-26T01:31:28;1.23;;;0.80;;
21330;SDS011;10824;51.632;4.950;2024-02-26T01:33:55;2.03;;;0.80;;
21330;SDS011;10824;51.632;4.950;2024-02-26T01:36:23;4.10;;;1.23;;
21330;SDS011;10824;51.632;4.950;2024-02-26T01:38:50;2.08;;;1.10;;
21330;SDS011;10824;51.632;4.950;2024-02-26T01:41:17;1.45;;;1.35;;
21330;SDS011;10824;51.632;4.950;2024-02-26T01:43:44;1.48;;;0.80;;
21330;SDS011;10824;51.632;4.950;2024-02-26T01:46:12;1.27;;;0.95;;
21330;SDS011;10824;51.632;4.950;2024-02-26T01:48:41;0.63;;;0.60;;
21330;SDS011;10824;51.632;4.950;2024-02-26T01:51:10;0.70;;;0.70;;
21330;SDS011;10824;51.632;4.950;2024-02-26T01:53:40;1.13;;;1.00;;
21330;SDS011;10824;51.632;4.950;2024-02-26T01:56:11;2.05;;;0.90;;
21330;SDS011;10824;51.632;4.950;2024-02-26T01:58:41;1.83;;;0.88;;
21330;SDS011;10824;51.632;4.950;2024-02-26T02:01:09;1.05;;;0.88;;
21330;SDS011;10824;51.632;4.950;2024-02-26T02:03:37;0.75;;;0.70;;
21330;SDS011;10824;51.632;4.950;2024-02-26T02:06:08;1.60;;;1.23;;
21330;SDS011;10824;51.632;4.950;2024-02-26T02:08:36;0.98;;;0.85;;
21330;SDS011;10824;51.632;4.950;2024-02-26T02:11:04;2.10;;;0.90;;
21330;SDS011;10824;51.632;4.950;2024-02-26T02:13:32;2.92;;;1.88;;
21330;SDS011;10824;51.632;4.950;2024-02-26T02:16:00;2.63;;;1.65;;
21330;SDS011;10824;51.632;4.950;2024-02-26T02:18:29;1.58;;;0.98;;
21330;SDS011;10824;51.632;4.950;2024-02-26T02:20:56;2.40;;;0.98;;
21330;SDS011;10824;51.632;4.950;2024-02-26T02:23:26;1.00;;;0.80;;
21330;SDS011;10824;51.632;4.950;2024-02-26T02:25:54;1.30;;;0.82;;
21330;SDS011;10824;51.632;4.950;2024-02-26T02:28:23;0.95;;;0.95;;
21330;SDS011;10824;51.632;4.950;2024-02-26T02:30:51;3.20;;;1.77;;
21330;SDS011;10824;51.632;4.950;2024-02-26T02:33:19;2.47;;;1.35;;
21330;SDS011;10824;51.632;4.950;2024-02-26T02:35:46;1.08;;;0.80;;
21330;SDS011;10824;51.632;4.950;2024-02-26T02:38:18;2.70;;;0.73;;
21330;SDS011;10824;51.632;4.950;2024-02-26T02:40:45;2.28;;;1.00;;
21330;SDS011;10824;51.632;4.950;2024-02-26T02:43:12;3.28;;;1.10;;
21330;SDS011;10824;51.632;4.950;2024-02-26T02:45:40;5.55;;;2.03;;
21330;SDS011;10824;51.632;4.950;2024-02-26T02:48:12;1.08;;;0.90;;
21330;SDS011;10824;51.632;4.950;2024-02-26T02:50:43;3.17;;;1.92;;
21330;SDS011;10824;51.632;4.950;2024-02-26T02:53:11;1.85;;;1.70;;
21330;SDS011;10824;51.632;4.950;2024-02-26T02:55:38;2.72;;;1.40;;
21330;SDS011;10824;51.632;4.950;2024-02-26T02:58:06;3.72;;;1.83;;
21330;SDS011;10824;51.632;4.950;2024-02-26T03:00:33;2.22;;;2.03;;
21330;SDS011;10824;51.632;4.950;2024-02-26T03:03:00;1.45;;;0.95;;
21330;SDS011;10824;51.632;4.950;2024-02-26T03:05:28;1.40;;;1.23;;
21330;SDS011;10824;51.632;4.950;2024-02-26T03:07:55;2.00;;;1.13;;
21330;SDS011;10824;51.632;4.950;2024-02-26T03:10:23;1.50;;;1.30;;
21330;SDS011;10824;51.632;4.950;2024-02-26T03:12:50;1.90;;;1.40;;
21330;SDS011;10824;51.632;4.950;2024-02-26T03:15:17;3.30;;;1.92;;
21330;SDS011;10824;51.632;4.950;2024-02-26T03:17:44;2.00;;;1.10;;
21330;SDS011;10824;51.632;4.950;2024-02-26T03:20:11;1.48;;;1.23;;
21330;SDS011;10824;51.632;4.950;2024-02-26T03:22:39;3.17;;;1.40;;
21330;SDS011;10824;51.632;4.950;2024-02-26T03:25:06;1.92;;;1.08;;
21330;SDS011;10824;51.632;4.950;2024-02-26T03:27:34;2.30;;;1.20;;
21330;SDS011;10824;51.632;4.950;2024-02-26T03:30:02;2.00;;;1.20;;
21330;SDS011;10824;51.632;4.950;2024-02-26T03:32:30;6.50;;;1.33;;
21330;SDS011;10824;51.632;4.950;2024-02-26T03:34:57;1.58;;;1.10;;
21330;SDS011;10824;51.632;4.950;2024-02-26T03:37:25;2.33;;;1.63;;
21330;SDS011;10824;51.632;4.950;2024-02-26T03:39:52;2.88;;;1.70;;
21330;SDS011;10824;51.632;4.950;2024-02-26T03:42:19;2.15;;;1.17;;
21330;SDS011;10824;51.632;4.950;2024-02-26T03:44:46;1.77;;;1.10;;
21330;SDS011;10824;51.632;4.950;2024-02-26T03:47:14;2.85;;;1.80;;
21330;SDS011;10824;51.632;4.950;2024-02-26T03:49:41;2.47;;;1.38;;
21330;SDS011;10824;51.632;4.950;2024-02-26T03:52:09;1.20;;;1.05;;
21330;SDS011;10824;51.632;4.950;2024-02-26T03:54:36;2.22;;;1.30;;
21330;SDS011;10824;51.632;4.950;2024-02-26T03:57:03;1.20;;;1.10;;
21330;SDS011;10824;51.632;4.950;2024-02-26T03:59:31;2.72;;;1.42;;
21330;SDS011;10824;51.632;4.950;2024-02-26T04:01:59;2.65;;;1.20;;
21330;SDS011;10824;51.632;4.950;2024-02-26T04:04:28;1.33;;;1.17;;
21330;SDS011;10824;51.632;4.950;2024-02-26T04:07:00;2.50;;;1.20;;
21330;SDS011;10824;51.632;4.950;2024-02-26T04:09:31;1.88;;;1.30;;
21330;SDS011;10824;51.632;4.950;2024-02-26T04:12:00;1.77;;;1.27;;
21330;SDS011;10824;51.632;4.950;2024-02-26T04:14:27;1.52;;;1.42;;
21330;SDS011;10824;51.632;4.950;2024-02-26T04:16:54;6.68;;;2.75;;
21330;SDS011;10824;51.632;4.950;2024-02-26T04:19:22;4.95;;;1.80;;
21330;SDS011;10824;51.632;4.950;2024-02-26T04:21:49;4.47;;;1.52;;
21330;SDS011;10824;51.632;4.950;2024-02-26T04:24:16;2.08;;;1.27;;
21330;SDS011;10824;51.632;4.950;2024-02-26T04:26:44;1.42;;;1.33;;
21330;SDS011;10824;51.632;4.950;2024-02-26T04:29:11;1.50;;;1.15;;
21330;SDS011;10824;51.632;4.950;2024-02-26T04:31:38;1.25;;;0.80;;
21330;SDS011;10824;51.632;4.950;2024-02-26T04:34:06;1.95;;;0.85;;
21330;SDS011;10824;51.632;4.950;2024-02-26T04:36:36;1.52;;;1.35;;
21330;SDS011;10824;51.632;4.950;2024-02-26T04:39:03;2.03;;;1.48;;
21330;SDS011;10824;51.632;4.950;2024-02-26T04:41:30;4.10;;;1.88;;
21330;SDS011;10824;51.632;4.950;2024-02-26T04:44:00;2.78;;;1.90;;
21330;SDS011;10824;51.632;4.950;2024-02-26T04:46:28;18.10;;;2.90;;
21330;SDS011;10824;51.632;4.950;2024-02-26T04:48:55;1.38;;;1.08;;
21330;SDS011;10824;51.632;4.950;2024-02-26T04:51:24;1.83;;;0.90;;
21330;SDS011;10824;51.632;4.950;2024-02-26T04:53:51;2.13;;;1.08;;
21330;SDS011;10824;51.632;4.950;2024-02-26T04:56:22;1.33;;;1.00;;
21330;SDS011;10824;51.632;4.950;2024-02-26T04:58:50;1.42;;;1.27;;
21330;SDS011;10824;51.632;4.950;2024-02-26T05:01:17;2.42;;;1.33;;
21330;SDS011;10824;51.632;4.950;2024-02-26T05:03:45;1.88;;;1.23;;
21330;SDS011;10824;51.632;4.950;2024-02-26T05:06:13;1.65;;;1.05;;
21330;SDS011;10824;51.632;4.950;2024-02-26T05:08:40;2.28;;;1.88;;
21330;SDS011;10824;51.632;4.950;2024-02-26T05:11:07;1.30;;;1.15;;
21330;SDS011;10824;51.632;4.950;2024-02-26T05:13:35;1.38;;;0.90;;
21330;SDS011;10824;51.632;4.950;2024-02-26T05:16:03;2.70;;;0.90;;
21330;SDS011;10824;51.632;4.950;2024-02-26T05:18:31;1.35;;;1.25;;
21330;SDS011;10824;51.632;4.950;2024-02-26T05:21:00;2.92;;;1.73;;
21330;SDS011;10824;51.632;4.950;2024-02-26T05:23:28;2.53;;;0.98;;
21330;SDS011;10824;51.632;4.950;2024-02-26T05:25:55;1.75;;;1.33;;
21330;SDS011;10824;51.632;4.950;2024-02-26T05:28:23;2.38;;;1.70;;
21330;SDS011;10824;51.632;4.950;2024-02-26T05:30:50;2.20;;;1.65;;
21330;SDS011;10824;51.632;4.950;2024-02-26T05:33:18;3.10;;;2.00;;
21330;SDS011;10824;51.632;4.950;2024-02-26T05:35:45;2.00;;;1.27;;
21330;SDS011;10824;51.632;4.950;2024-02-26T05:38:13;2.30;;;1.13;;
21330;SDS011;10824;51.632;4.950;2024-02-26T05:40:40;1.33;;;1.00;;
21330;SDS011;10824;51.632;4.950;2024-02-26T05:43:07;3.67;;;1.23;;
21330;SDS011;10824;51.632;4.950;2024-02-26T05:45:35;1.20;;;1.10;;
21330;SDS011;10824;51.632;4.950;2024-02-26T05:48:02;1.52;;;1.27;;
21330;SDS011;10824;51.632;4.950;2024-02-26T05:50:30;1.65;;;1.55;;
21330;SDS011;10824;51.632;4.950;2024-02-26T05:52:57;3.40;;;1.58;;
21330;SDS011;10824;51.632;4.950;2024-02-26T05:55:25;2.05;;;1.70;;
21330;SDS011;10824;51.632;4.950;2024-02-26T05:57:52;2.63;;;2.03;;
21330;SDS011;10824;51.632;4.950;2024-02-26T06:00:19;1.77;;;1.45;;
21330;SDS011;10824;51.632;4.950;2024-02-26T06:02:47;2.13;;;1.70;;
21330;SDS011;10824;51.632;4.950;2024-02-26T06:07:56;2.83;;;2.28;;
21330;SDS011;10824;51.632;4.950;2024-02-26T06:10:24;3.70;;;1.33;;
21330;SDS011;10824;51.632;4.950;2024-02-26T06:12:50;2.03;;;1.30;;
21330;SDS011;10824;51.632;4.950;2024-02-26T06:15:18;1.90;;;1.20;;
21330;SDS011;10824;51.632;4.950;2024-02-26T06:17:45;2.17;;;1.60;;
21330;SDS011;10824;51.632;4.950;2024-02-26T06:20:12;2.63;;;1.45;;
21330;SDS011;10824;51.632;4.950;2024-02-26T06:22:40;2.00;;;1.38;;
21330;SDS011;10824;51.632;4.950;2024-02-26T06:25:08;4.30;;;1.58;;
21330;SDS011;10824;51.632;4.950;2024-02-26T06:27:35;11.77;;;3.08;;
21330;SDS011;10824;51.632;4.950;2024-02-26T06:30:03;8.15;;;1.70;;
21330;SDS011;10824;51.632;4.950;2024-02-26T06:32:30;3.45;;;1.45;;
21330;SDS011;10824;51.632;4.950;2024-02-26T06:34:57;3.55;;;1.58;;
21330;SDS011;10824;51.632;4.950;2024-02-26T06:37:25;4.28;;;2.00;;
21330;SDS011;10824;51.632;4.950;2024-02-26T06:39:52;3.58;;;1.90;;
21330;SDS011;10824;51.632;4.950;2024-02-26T06:42:19;4.03;;;1.92;;
21330;SDS011;10824;51.632;4.950;2024-02-26T06:44:46;1.48;;;1.30;;
21330;SDS011;10824;51.632;4.950;2024-02-26T06:47:13;1.88;;;1.70;;
21330;SDS011;10824;51.632;4.950;2024-02-26T06:49:40;2.40;;;1.20;;
21330;SDS011;10824;51.632;4.950;2024-02-26T06:52:07;1.30;;;1.20;;
21330;SDS011;10824;51.632;4.950;2024-02-26T06:54:35;1.45;;;0.95;;
21330;SDS011;10824;51.632;4.950;2024-02-26T06:57:02;1.95;;;0.98;;
21330;SDS011;10824;51.632;4.950;2024-02-26T06:59:30;6.45;;;2.00;;
21330;SDS011;10824;51.632;4.950;2024-02-26T07:01:57;3.35;;;2.58;;
21330;SDS011;10824;51.632;4.950;2024-02-26T07:04:24;1.85;;;1.38;;
21330;SDS011;10824;51.632;4.950;2024-02-26T07:06:56;3.70;;;1.17;;
21330;SDS011;10824;51.632;4.950;2024-02-26T07:09:24;1.88;;;1.75;;
21330;SDS011;10824;51.632;4.950;2024-02-26T07:11:55;3.47;;;1.58;;
21330;SDS011;10824;51.632;4.950;2024-02-26T07:14:30;1.65;;;1.15;;
21330;SDS011;10824;51.632;4.950;2024-02-26T07:16:57;1.50;;;1.13;;
21330;SDS011;10824;51.632;4.950;2024-02-26T07:19:25;2.55;;;2.33;;
21330;SDS011;10824;51.632;4.950;2024-02-26T07:21:52;2.42;;;1.40;;
21330;SDS011;10824;51.632;4.950;2024-02-26T07:24:19;2.78;;;1.55;;
21330;SDS011;10824;51.632;4.950;2024-02-26T07:26:47;2.33;;;1.38;;
21330;SDS011;10824;51.632;4.950;2024-02-26T07:29:14;3.13;;;2.35;;
21330;SDS011;10824;51.632;4.950;2024-02-26T07:31:41;1.58;;;1.35;;
21330;SDS011;10824;51.632;4.950;2024-02-26T07:34:08;3.97;;;1.48;;
21330;SDS011;10824;51.632;4.950;2024-02-26T07:36:35;2.20;;;2.08;;
21330;SDS011;10824;51.632;4.950;2024-02-26T07:39:02;2.75;;;1.45;;
21330;SDS011;10824;51.632;4.950;2024-02-26T07:41:29;2.58;;;1.63;;
21330;SDS011;10824;51.632;4.950;2024-02-26T07:43:56;2.67;;;2.15;;
21330;SDS011;10824;51.632;4.950;2024-02-26T07:46:23;3.45;;;1.73;;
21330;SDS011;10824;51.632;4.950;2024-02-26T07:48:50;3.03;;;2.15;;
21330;SDS011;10824;51.632;4.950;2024-02-26T07:51:18;3.13;;;1.15;;
21330;SDS011;10824;51.632;4.950;2024-02-26T07:53:45;4.47;;;2.05;;
21330;SDS011;10824;51.632;4.950;2024-02-26T07:56:12;2.97;;;2.47;;
21330;SDS011;10824;51.632;4.950;2024-02-26T07:58:39;2.25;;;2.05;;
21330;SDS011;10824;51.632;4.950;2024-02-26T08:01:07;4.70;;;2.70;;
21330;SDS011;10824;51.632;4.950;2024-02-26T08:03:34;2.15;;;1.55;;
21330;SDS011;10824;51.632;4.950;2024-02-26T08:06:01;5.45;;;1.80;;
21330;SDS011;10824;51.632;4.950;2024-02-26T08:08:28;2.25;;;1.75;;
21330;SDS011;10824;51.632;4.950;2024-02-26T08:10:55;2.90;;;1.38;;
21330;SDS011;10824;51.632;4.950;2024-02-26T08:13:22;3.40;;;1.65;;
21330;SDS011;10824;51.632;4.950;2024-02-26T08:15:49;2.03;;;1.63;;
21330;SDS011;10824;51.632;4.950;2024-02-26T08:18:16;2.90;;;1.30;;
21330;SDS011;10824;51.632;4.950;2024-02-26T08:20:44;1.80;;;1.65;;
21330;SDS011;10824;51.632;4.950;2024-02-26T08:23:11;6.88;;;1.50;;
21330;SDS011;10824;51.632;4.950;2024-02-26T08:25:38;1.98;;;1.77;;
21330;SDS011;10824;51.632;4.950;2024-02-26T08:28:05;5.00;;;1.50;;
21330;SDS011;10824;51.632;4.950;2024-02-26T08:30:32;5.75;;;2.10;;
21330;SDS011;10824;51.632;4.950;2024-02-26T08:33:00;3.22;;;1.95;;
21330;SDS011;10824;51.632;4.950;2024-02-26T08:35:28;5.03;;;3.47;;
21330;SDS011;10824;51.632;4.950;2024-02-26T08:37:55;7.07;;;2.78;;
21330;SDS011;10824;51.632;4.950;2024-02-26T08:40:22;3.92;;;2.20;;
21330;SDS011;10824;51.632;4.950;2024-02-26T08:42:49;4.05;;;2.05;;
21330;SDS011;10824;51.632;4.950;2024-02-26T08:45:16;3.80;;;2.38;;
21330;SDS011;10824;51.632;4.950;2024-02-26T08:47:44;5.10;;;3.13;;
21330;SDS011;10824;51.632;4.950;2024-02-26T08:50:13;2.63;;;1.88;;
21330;SDS011;10824;51.632;4.950;2024-02-26T08:52:41;6.10;;;3.17;;
21330;SDS011;10824;51.632;4.950;2024-02-26T08:55:08;5.75;;;4.05;;
21330;SDS011;10824;51.632;4.950;2024-02-26T08:57:35;5.65;;;3.00;;
21330;SDS011;10824;51.632;4.950;2024-02-26T09:00:02;6.85;;;4.40;;
21330;SDS011;10824;51.632;4.950;2024-02-26T09:02:29;5.72;;;3.58;;
21330;SDS011;10824;51.632;4.950;2024-02-26T09:04:56;5.68;;;3.13;;
21330;SDS011;10824;51.632;4.950;2024-02-26T09:07:23;5.03;;;3.15;;
21330;SDS011;10824;51.632;4.950;2024-02-26T09:09:51;5.90;;;3.20;;
21330;SDS011;10824;51.632;4.950;2024-02-26T09:12:18;4.55;;;2.20;;
21330;SDS011;10824;51.632;4.950;2024-02-26T09:14:46;7.80;;;3.72;;
21330;SDS011;10824;51.632;4.950;2024-02-26T09:17:13;5.50;;;2.65;;
21330;SDS011;10824;51.632;4.950;2024-02-26T09:19:40;10.05;;;3.83;;
21330;SDS011;10824;51.632;4.950;2024-02-26T09:22:08;7.00;;;3.25;;
21330;SDS011;10824;51.632;4.950;2024-02-26T09:24:36;4.47;;;4.03;;
21330;SDS011;10824;51.632;4.950;2024-02-26T09:27:03;5.82;;;3.45;;
21330;SDS011;10824;51.632;4.950;2024-02-26T09:29:30;5.88;;;3.45;;
21330;SDS011;10824;51.632;4.950;2024-02-26T09:31:57;6.63;;;3.47;;
21330;SDS011;10824;51.632;4.950;2024-02-26T09:34:25;8.40;;;4.35;;
21330;SDS011;10824;51.632;4.950;2024-02-26T09:36:52;7.22;;;5.15;;
21330;SDS011;10824;51.632;4.950;2024-02-26T09:39:27;7.20;;;4.57;;
21330;SDS011;10824;51.632;4.950;2024-02-26T09:41:55;10.38;;;4.40;;
21330;SDS011;10824;51.632;4.950;2024-02-26T09:44:23;10.05;;;4.13;;
21330;SDS011;10824;51.632;4.950;2024-02-26T09:46:51;11.35;;;4.57;;
21330;SDS011;10824;51.632;4.950;2024-02-26T09:49:19;5.38;;;3.00;;
21330;SDS011;10824;51.632;4.950;2024-02-26T09:51:48;9.43;;;4.28;;
21330;SDS011;10824;51.632;4.950;2024-02-26T09:54:16;7.60;;;5.05;;
21330;SDS011;10824;51.632;4.950;2024-02-26T09:56:44;6.95;;;4.35;;
21330;SDS011;10824;51.632;4.950;2024-02-26T09:59:29;8.27;;;4.63;;
21330;SDS011;10824;51.632;4.950;2024-02-26T10:02:04;8.35;;;4.07;;
21330;SDS011;10824;51.632;4.950;2024-02-26T10:04:35;4.97;;;3.38;;
21330;SDS011;10824;51.632;4.950;2024-02-26T10:07:03;8.20;;;4.30;;
21330;SDS011;10824;51.632;4.950;2024-02-26T10:09:32;8.23;;;4.30;;
21330;SDS011;10824;51.632;4.950;2024-02-26T10:11:59;10.52;;;5.85;;
21330;SDS011;10824;51.632;4.950;2024-02-26T10:14:26;9.88;;;4.90;;
21330;SDS011;10824;51.632;4.950;2024-02-26T10:16:54;4.70;;;3.75;;
21330;SDS011;10824;51.632;4.950;2024-02-26T10:19:27;7.68;;;4.40;;
21330;SDS011;10824;51.632;4.950;2024-02-26T10:21:57;7.00;;;3.30;;
21330;SDS011;10824;51.632;4.950;2024-02-26T10:24:28;14.57;;;4.35;;
21330;SDS011;10824;51.632;4.950;2024-02-26T10:26:56;5.03;;;3.38;;
21330;SDS011;10824;51.632;4.950;2024-02-26T10:29:24;7.93;;;4.25;;
21330;SDS011;10824;51.632;4.950;2024-02-26T10:31:52;9.65;;;5.00;;
21330;SDS011;10824;51.632;4.950;2024-02-26T10:34:19;4.75;;;4.35;;
21330;SDS011;10824;51.632;4.950;2024-02-26T10:36:47;6.20;;;3.47;;
21330;SDS011;10824;51.632;4.950;2024-02-26T10:39:20;7.35;;;3.95;;
21330;SDS011;10824;51.632;4.950;2024-02-26T10:41:48;6.47;;;2.90;;
21330;SDS011;10824;51.632;4.950;2024-02-26T10:44:16;7.72;;;3.15;;
21330;SDS011;10824;51.632;4.950;2024-02-26T10:46:46;9.85;;;4.63;;
21330;SDS011;10824;51.632;4.950;2024-02-26T10:49:16;3.92;;;2.65;;
21330;SDS011;10824;51.632;4.950;2024-02-26T10:51:52;4.60;;;2.90;;
21330;SDS011;10824;51.632;4.950;2024-02-26T10:54:24;7.80;;;3.70;;
21330;SDS011;10824;51.632;4.950;2024-02-26T10:56:56;3.45;;;2.97;;
21330;SDS011;10824;51.632;4.950;2024-02-26T10:59:27;9.25;;;5.22;;
21330;SDS011;10824;51.632;4.950;2024-02-26T11:01:54;7.07;;;3.30;;
21330;SDS011;10824;51.632;4.950;2024-02-26T11:04:23;6.22;;;3.42;;
21330;SDS011;10824;51.632;4.950;2024-02-26T11:06:54;5.00;;;2.30;;
21330;SDS011;10824;51.632;4.950;2024-02-26T11:09:23;6.00;;;2.60;;
21330;SDS011;10824;51.632;4.950;2024-02-26T11:11:51;7.15;;;4.05;;
21330;SDS011;10824;51.632;4.950;2024-02-26T11:14:21;6.35;;;3.35;;
21330;SDS011;10824;51.632;4.950;2024-02-26T11:16:53;5.28;;;2.20;;
21330;SDS011;10824;51.632;4.950;2024-02-26T11:19:22;4.50;;;3.67;;
21330;SDS011;10824;51.632;4.950;2024-02-26T11:21:51;4.40;;;2.92;;
21330;SDS011;10824;51.632;4.950;2024-02-26T11:24:18;5.85;;;2.58;;
21330;SDS011;10824;51.632;4.950;2024-02-26T11:26:51;4.90;;;2.50;;
21330;SDS011;10824;51.632;4.950;2024-02-26T11:29:37;3.97;;;2.65;;
21330;SDS011;10824;51.632;4.950;2024-02-26T11:32:08;9.38;;;2.72;;
21330;SDS011;10824;51.632;4.950;2024-02-26T11:34:36;4.97;;;2.55;;
21330;SDS011;10824;51.632;4.950;2024-02-26T11:37:11;3.35;;;2.28;;
21330;SDS011;10824;51.632;4.950;2024-02-26T11:39:40;5.32;;;3.10;;
21330;SDS011;10824;51.632;4.950;2024-02-26T11:42:08;3.70;;;2.30;;
21330;SDS011;10824;51.632;4.950;2024-02-26T11:44:36;4.95;;;3.55;;
21330;SDS011;10824;51.632;4.950;2024-02-26T11:47:12;9.45;;;2.50;;
21330;SDS011;10824;51.632;4.950;2024-02-26T11:49:44;3.50;;;2.65;;
21330;SDS011;10824;51.632;4.950;2024-02-26T11:52:12;8.70;;;3.75;;
21330;SDS011;10824;51.632;4.950;2024-02-26T11:54:50;5.20;;;2.80;;
21330;SDS011;10824;51.632;4.950;2024-02-26T11:57:39;5.90;;;3.53;;
21330;SDS011;10824;51.632;4.950;2024-02-26T12:05:16;5.25;;;2.47;;
21330;SDS011;10824;51.632;4.950;2024-02-26T12:07:49;4.35;;;2.83;;
21330;SDS011;10824;51.632;4.950;2024-02-26T12:10:22;7.55;;;2.88;;
21330;SDS011;10824;51.632;4.950;2024-02-26T12:13:13;4.53;;;2.83;;
21330;SDS011;10824;51.632;4.950;2024-02-26T12:18:18;7.50;;;3.30;;
21330;SDS011;10824;51.632;4.950;2024-02-26T12:20:47;3.03;;;2.53;;
21330;SDS011;10824;51.632;4.950;2024-02-26T12:23:28;13.25;;;3.45;;
21330;SDS011;10824;51.632;4.950;2024-02-26T12:25:59;6.10;;;2.80;;
21330;SDS011;10824;51.632;4.950;2024-02-26T12:28:31;4.43;;;3.03;;
21330;SDS011;10824;51.632;4.950;2024-02-26T12:30:58;4.85;;;3.65;;
21330;SDS011;10824;51.632;4.950;2024-02-26T12:33:26;7.80;;;2.92;;
21330;SDS011;10824;51.632;4.950;2024-02-26T12:35:55;4.25;;;2.25;;
21330;SDS011;10824;51.632;4.950;2024-02-26T12:38:23;4.72;;;2.42;;
21330;SDS011;10824;51.632;4.950;2024-02-26T12:40:50;7.22;;;3.05;;
21330;SDS011;10824;51.632;4.950;2024-02-26T12:43:17;6.05;;;2.58;;
21330;SDS011;10824;51.632;4.950;2024-02-26T12:45:45;6.43;;;3.33;;
21330;SDS011;10824;51.632;4.950;2024-02-26T12:48:14;4.90;;;2.67;;
21330;SDS011;10824;51.632;4.950;2024-02-26T12:50:45;6.45;;;4.88;;
21330;SDS011;10824;51.632;4.950;2024-02-26T12:53:14;4.03;;;2.22;;
21330;SDS011;10824;51.632;4.950;2024-02-26T12:55:41;6.72;;;3.00;;
21330;SDS011;10824;51.632;4.950;2024-02-26T12:58:09;4.75;;;2.42;;
21330;SDS011;10824;51.632;4.950;2024-02-26T13:00:37;8.38;;;2.90;;
21330;SDS011;10824;51.632;4.950;2024-02-26T13:03:05;5.68;;;3.05;;
21330;SDS011;10824;51.632;4.950;2024-02-26T13:05:32;4.10;;;2.70;;
21330;SDS011;10824;51.632;4.950;2024-02-26T13:08:00;6.63;;;3.33;;
21330;SDS011;10824;51.632;4.950;2024-02-26T13:10:31;3.95;;;2.25;;
21330;SDS011;10824;51.632;4.950;2024-02-26T13:12:58;3.47;;;2.40;;
21330;SDS011;10824;51.632;4.950;2024-02-26T13:15:29;5.03;;;2.70;;
21330;SDS011;10824;51.632;4.950;2024-02-26T13:17:56;8.57;;;2.00;;
21330;SDS011;10824;51.632;4.950;2024-02-26T13:20:30;3.50;;;2.00;;
21330;SDS011;10824;51.632;4.950;2024-02-26T13:23:05;5.90;;;2.65;;
21330;SDS011;10824;51.632;4.950;2024-02-26T13:25:34;3.78;;;3.25;;
21330;SDS011;10824;51.632;4.950;2024-02-26T13:28:09;5.70;;;2.72;;
21330;SDS011;10824;51.632;4.950;2024-02-26T13:30:40;4.90;;;2.15;;
21330;SDS011;10824;51.632;4.950;2024-02-26T13:33:12;6.93;;;2.67;;
21330;SDS011;10824;51.632;4.950;2024-02-26T13:35:40;2.55;;;2.10;;
21330;SDS011;10824;51.632;4.950;2024-02-26T13:38:07;3.25;;;1.67;;
21330;SDS011;10824;51.632;4.950;2024-02-26T13:40:34;3.92;;;2.33;;
21330;SDS011;10824;51.632;4.950;2024-02-26T13:43:02;4.68;;;3.35;;
21330;SDS011;10824;51.632;4.950;2024-02-26T13:45:30;4.03;;;2.67;;
21330;SDS011;10824;51.632;4.950;2024-02-26T13:48:04;3.55;;;1.92;;
21330;SDS011;10824;51.632;4.950;2024-02-26T13:50:33;6.88;;;3.75;;
21330;SDS011;10824;51.632;4.950;2024-02-26T13:53:00;4.63;;;2.03;;
21330;SDS011;10824;51.632;4.950;2024-02-26T13:55:28;3.55;;;2.55;;
21330;SDS011;10824;51.632;4.950;2024-02-26T13:57:57;2.55;;;1.70;;
21330;SDS011;10824;51.632;4.950;2024-02-26T14:00:26;3.63;;;1.80;;
21330;SDS011;10824;51.632;4.950;2024-02-26T14:02:58;5.78;;;2.78;;
21330;SDS011;10824;51.632;4.950;2024-02-26T14:05:26;6.38;;;3.60;;
21330;SDS011;10824;51.632;4.950;2024-02-26T14:07:55;4.95;;;2.30;;
21330;SDS011;10824;51.632;4.950;2024-02-26T14:10:22;7.18;;;3.40;;
21330;SDS011;10824;51.632;4.950;2024-02-26T14:12:49;3.10;;;1.40;;
21330;SDS011;10824;51.632;4.950;2024-02-26T14:15:17;7.25;;;1.55;;
21330;SDS011;10824;51.632;4.950;2024-02-26T14:17:44;4.20;;;2.10;;
21330;SDS011;10824;51.632;4.950;2024-02-26T14:20:12;2.75;;;2.33;;
21330;SDS011;10824;51.632;4.950;2024-02-26T14:22:40;2.63;;;1.45;;
21330;SDS011;10824;51.632;4.950;2024-02-26T14:25:07;2.35;;;1.30;;
21330;SDS011;10824;51.632;4.950;2024-02-26T14:27:36;2.45;;;1.30;;
21330;SDS011;10824;51.632;4.950;2024-02-26T14:30:03;3.78;;;1.95;;
21330;SDS011;10824;51.632;4.950;2024-02-26T14:32:31;2.67;;;1.98;;
21330;SDS011;10824;51.632;4.950;2024-02-26T14:35:05;3.45;;;1.83;;
21330;SDS011;10824;51.632;4.950;2024-02-26T14:37:36;5.15;;;1.70;;
21330;SDS011;10824;51.632;4.950;2024-02-26T14:40:04;2.70;;;2.42;;
21330;SDS011;10824;51.632;4.950;2024-02-26T14:42:32;2.47;;;1.42;;
21330;SDS011;10824;51.632;4.950;2024-02-26T14:44:59;3.97;;;1.88;;
21330;SDS011;10824;51.632;4.950;2024-02-26T14:47:26;3.08;;;2.17;;
21330;SDS011;10824;51.632;4.950;2024-02-26T14:49:53;2.55;;;2.35;;
21330;SDS011;10824;51.632;4.950;2024-02-26T14:52:21;2.65;;;1.52;;
21330;SDS011;10824;51.632;4.950;2024-02-26T14:54:48;3.05;;;1.63;;
21330;SDS011;10824;51.632;4.950;2024-02-26T14:57:18;3.03;;;2.55;;
21330;SDS011;10824;51.632;4.950;2024-02-26T14:59:45;3.70;;;2.03;;
21330;SDS011;10824;51.632;4.950;2024-02-26T15:02:12;3.53;;;1.70;;
21330;SDS011;10824;51.632;4.950;2024-02-26T15:04:40;4.55;;;2.70;;
21330;SDS011;10824;51.632;4.950;2024-02-26T15:07:07;4.00;;;2.45;;